Time,TemperatureF,DewpointF,PressureIn,WindDirection,WindDirectionDegrees,WindSpeedMPH,WindSpeedGustMPH,Humidity,HourlyPrecipIn,Conditions,Clouds,dailyrainin,SoftwareType,DateUTC
2013-06-02 00:01:00,75.1,68.0,29.88,WSW,248,6.0,-999.0,79,-99.99,,,0.05,weatherlink.com 1.10,2013-06-02 04:01:00,
2013-06-02 00:16:00,75.1,68.0,29.88,WSW,251,5.0,-999.0,79,-99.99,,,0.05,weatherlink.com 1.10,2013-06-02 04:16:00,
2013-06-02 00:31:00,74.7,69.0,29.88,WSW,246,2.0,-999.0,81,-99.99,,,0.05,weatherlink.com 1.10,2013-06-02 04:31:00,
2013-06-02 00:46:00,74.8,69.0,29.88,WSW,248,0.0,-999.0,81,-99.99,,,0.05,weatherlink.com 1.10,2013-06-02 04:46:00,
2013-06-02 01:01:00,74.6,69.0,29.88,SSW,205,4.0,-999.0,82,-99.99,,,0.05,weatherlink.com 1.10,2013-06-02 05:01:00,
2013-06-02 01:16:00,74.5,69.0,29.88,West,277,3.0,-999.0,82,-99.99,,,0.00,weatherlink.com 1.10,2013-06-02 05:16:00,
2013-06-02 01:31:00,73.8,69.0,29.89,NW,325,5.0,-999.0,84,-99.99,,,0.00,weatherlink.com 1.10,2013-06-02 05:31:00,
2013-06-02 01:46:00,72.3,68.0,29.89,NW,307,6.0,-999.0,86,-99.99,,,0.00,weatherlink.com 1.10,2013-06-02 05:46:00,
2013-06-02 02:02:00,71.6,68.0,29.90,West,270,3.0,-999.0,87,-99.99,,,0.00,weatherlink.com 1.10,2013-06-02 06:02:00,
2013-06-02 02:17:00,71.1,67.0,29.89,West,276,7.0,-999.0,86,-99.99,,,0.00,weatherlink.com 1.10,2013-06-02 06:17:00,
2013-06-02 02:32:00,70.8,67.0,29.90,NW,306,5.0,-999.0,87,-99.99,,,0.00,weatherlink.com 1.10,2013-06-02 06:32:00,
2013-06-02 02:47:00,70.9,67.0,29.90,WNW,290,7.0,-999.0,87,-99.99,,,0.00,weatherlink.com 1.10,2013-06-02 06:47:00,
2013-06-02 03:02:00,70.7,67.0,29.89,SW,222,3.0,-999.0,87,-99.99,,,0.00,weatherlink.com 1.10,2013-06-02 07:02:00,
2013-06-02 03:17:00,70.7,67.0,29.91,West,273,3.0,-999.0,87,-99.99,,,0.00,weatherlink.com 1.10,2013-06-02 07:17:00,
2013-06-02 03:32:00,70.6,67.0,29.90,West,266,4.0,-999.0,87,-99.99,,,0.00,weatherlink.com 1.10,2013-06-02 07:32:00,
2013-06-02 03:47:00,70.4,66.0,29.90,WNW,282,6.0,-999.0,87,-99.99,,,0.00,weatherlink.com 1.10,2013-06-02 07:47:00,
2013-06-02 04:02:00,70.4,66.0,29.90,WNW,303,3.0,-999.0,86,-99.99,,,0.00,weatherlink.com 1.10,2013-06-02 08:02:00,
2013-06-02 04:17:00,70.3,66.0,29.90,WSW,254,8.0,-999.0,85,-99.99,,,0.00,weatherlink.com 1.10,2013-06-02 08:17:00,
2013-06-02 04:32:00,70.1,66.0,29.90,West,279,6.0,-999.0,86,-99.99,,,0.01,weatherlink.com 1.10,2013-06-02 08:32:00,
2013-06-02 04:47:00,69.1,66.0,29.90,West,263,3.0,-999.0,89,-99.99,,,0.02,weatherlink.com 1.10,2013-06-02 08:47:00,
2013-06-02 05:02:00,68.6,66.0,29.90,West,271,4.0,-999.0,90,-99.99,,,0.02,weatherlink.com 1.10,2013-06-02 09:02:00,
2013-06-02 05:17:00,68.3,65.0,29.90,West,273,3.0,-999.0,89,-99.99,,,0.02,weatherlink.com 1.10,2013-06-02 09:17:00,
2013-06-02 05:32:00,67.9,65.0,29.90,West,272,0.0,-999.0,90,-99.99,,,0.02,weatherlink.com 1.10,2013-06-02 09:32:00,
2013-06-02 05:47:00,67.6,65.0,29.90,West,272,0.0,-999.0,91,-99.99,,,0.02,weatherlink.com 1.10,2013-06-02 09:47:00,
2013-06-02 06:02:00,67.5,65.0,29.91,West,272,1.0,-999.0,91,-99.99,,,0.02,weatherlink.com 1.10,2013-06-02 10:02:00,
2013-06-02 06:17:00,67.4,65.0,29.91,West,272,0.0,-999.0,91,-99.99,,,0.02,weatherlink.com 1.10,2013-06-02 10:17:00,
2013-06-02 06:32:00,67.5,65.0,29.91,West,272,4.0,-999.0,91,-99.99,,,0.02,weatherlink.com 1.10,2013-06-02 10:32:00,
2013-06-02 06:47:00,67.6,65.0,29.91,West,272,2.0,-999.0,91,-99.99,,,0.02,weatherlink.com 1.10,2013-06-02 10:47:00,
2013-06-02 07:02:00,67.6,65.0,29.92,West,272,0.0,-999.0,91,-99.99,,,0.02,weatherlink.com 1.10,2013-06-02 11:02:00,
2013-06-02 07:17:00,67.7,65.0,29.92,West,272,0.0,-999.0,91,-99.99,,,0.02,weatherlink.com 1.10,2013-06-02 11:17:00,
2013-06-02 07:32:00,68.0,65.0,29.92,West,272,3.0,-999.0,91,-99.99,,,0.02,weatherlink.com 1.10,2013-06-02 11:32:00,
2013-06-02 07:47:00,68.5,66.0,29.92,West,272,0.0,-999.0,91,-99.99,,,0.02,weatherlink.com 1.10,2013-06-02 11:47:00,
2013-06-02 08:02:00,68.9,66.0,29.91,West,272,0.0,-999.0,90,-99.99,,,0.02,weatherlink.com 1.10,2013-06-02 12:02:00,
2013-06-02 08:17:00,69.3,66.0,29.91,West,272,0.0,-999.0,89,-99.99,,,0.02,weatherlink.com 1.10,2013-06-02 12:17:00,
2013-06-02 08:32:00,69.2,66.0,29.92,West,272,0.0,-999.0,89,-99.99,,,0.02,weatherlink.com 1.10,2013-06-02 12:32:00,
2013-06-02 08:47:00,69.0,65.0,29.93,West,272,3.0,-999.0,88,-99.99,,,0.02,weatherlink.com 1.10,2013-06-02 12:47:00,
2013-06-02 09:02:00,69.4,66.0,29.92,West,272,0.0,-999.0,89,-99.99,,,0.02,weatherlink.com 1.10,2013-06-02 13:02:00,
2013-06-02 09:17:00,69.7,66.0,29.92,West,272,5.0,-999.0,87,-99.99,,,0.02,weatherlink.com 1.10,2013-06-02 13:17:00,
2013-06-02 09:32:00,69.9,66.0,29.92,West,272,2.0,-999.0,86,-99.99,,,0.02,weatherlink.com 1.10,2013-06-02 13:32:00,
2013-06-02 09:47:00,69.9,66.0,29.93,West,272,2.0,-999.0,86,-99.99,,,0.02,weatherlink.com 1.10,2013-06-02 13:47:00,
2013-06-02 10:02:00,69.9,65.0,29.94,West,272,2.0,-999.0,85,-99.99,,,0.02,weatherlink.com 1.10,2013-06-02 14:02:00,
2013-06-02 10:17:00,70.2,66.0,29.94,West,272,2.0,-999.0,86,-99.99,,,0.02,weatherlink.com 1.10,2013-06-02 14:17:00,
2013-06-02 10:32:00,70.4,66.0,29.94,West,272,0.0,-999.0,85,-99.99,,,0.02,weatherlink.com 1.10,2013-06-02 14:32:00,
2013-06-02 10:47:00,70.4,66.0,29.94,West,272,0.0,-999.0,85,-99.99,,,0.02,weatherlink.com 1.10,2013-06-02 14:47:00,
2013-06-02 11:02:00,70.7,66.0,29.94,West,272,0.0,-999.0,85,-99.99,,,0.02,weatherlink.com 1.10,2013-06-02 15:02:00,
2013-06-02 11:17:00,71.3,66.0,29.94,West,272,0.0,-999.0,82,-99.99,,,0.02,weatherlink.com 1.10,2013-06-02 15:17:00,
2013-06-02 11:32:00,71.5,66.0,29.95,West,272,0.0,-999.0,82,-99.99,,,0.02,weatherlink.com 1.10,2013-06-02 15:32:00,
2013-06-02 11:47:00,71.5,66.0,29.95,West,272,0.0,-999.0,82,-99.99,,,0.02,weatherlink.com 1.10,2013-06-02 15:47:00,
2013-06-02 12:02:00,71.0,66.0,29.96,West,272,0.0,-999.0,85,-99.99,,,0.03,weatherlink.com 1.10,2013-06-02 16:02:00,
2013-06-02 12:17:00,70.3,67.0,29.96,West,272,0.0,-999.0,89,-99.99,,,0.04,weatherlink.com 1.10,2013-06-02 16:17:00,
2013-06-02 12:32:00,69.2,66.0,29.96,SW,221,2.0,-999.0,90,-99.99,,,0.05,weatherlink.com 1.10,2013-06-02 16:32:00,
2013-06-02 12:47:00,69.3,67.0,29.95,SW,221,3.0,-999.0,91,-99.99,,,0.05,weatherlink.com 1.10,2013-06-02 16:47:00,
2013-06-02 13:02:00,69.9,67.0,29.94,SW,221,0.0,-999.0,91,-99.99,,,0.05,weatherlink.com 1.10,2013-06-02 17:02:00,
2013-06-02 13:17:00,70.4,67.0,29.93,SW,221,0.0,-999.0,90,-99.99,,,0.05,weatherlink.com 1.10,2013-06-02 17:17:00,
2013-06-02 13:33:00,71.1,68.0,29.93,SW,221,0.0,-999.0,89,-99.99,,,0.05,weatherlink.com 1.10,2013-06-02 17:33:00,
2013-06-02 13:47:00,71.8,67.0,29.93,SW,221,1.0,-999.0,84,-99.99,,,0.05,weatherlink.com 1.10,2013-06-02 17:47:00,
2013-06-02 14:03:00,72.9,68.0,29.92,SW,221,0.0,-999.0,85,-99.99,,,0.05,weatherlink.com 1.10,2013-06-02 18:03:00,
2013-06-02 14:18:00,73.4,67.0,29.92,SW,221,0.0,-999.0,81,-99.99,,,0.05,weatherlink.com 1.10,2013-06-02 18:18:00,
2013-06-02 14:33:00,73.8,68.0,29.92,SW,221,0.0,-999.0,81,-99.99,,,0.05,weatherlink.com 1.10,2013-06-02 18:33:00,
2013-06-02 14:48:00,74.7,68.0,29.92,SW,215,0.0,-999.0,79,-99.99,,,0.05,weatherlink.com 1.10,2013-06-02 18:48:00,
2013-06-02 15:03:00,74.9,67.0,29.92,SSW,201,4.0,-999.0,77,-99.99,,,0.05,weatherlink.com 1.10,2013-06-02 19:03:00,
2013-06-02 15:18:00,74.5,67.0,29.92,SSW,201,0.0,-999.0,77,-99.99,,,0.05,weatherlink.com 1.10,2013-06-02 19:18:00,
2013-06-02 15:33:00,74.9,67.0,29.92,SW,233,5.0,-999.0,75,-99.99,,,0.05,weatherlink.com 1.10,2013-06-02 19:33:00,
2013-06-02 15:48:00,74.6,67.0,29.92,SW,233,0.0,-999.0,77,-99.99,,,0.05,weatherlink.com 1.10,2013-06-02 19:48:00,
2013-06-02 16:03:00,75.8,67.0,29.92,SW,233,0.0,-999.0,74,-99.99,,,0.05,weatherlink.com 1.10,2013-06-02 20:03:00,
2013-06-02 16:18:00,76.9,68.0,29.91,SSW,203,0.0,-999.0,73,-99.99,,,0.05,weatherlink.com 1.10,2013-06-02 20:18:00,
2013-06-02 16:34:00,77.2,67.0,29.90,SSW,199,0.0,-999.0,71,-99.99,,,0.05,weatherlink.com 1.10,2013-06-02 20:34:00,
2013-06-02 16:48:00,77.8,67.0,29.89,SSW,199,0.0,-999.0,70,-99.99,,,0.05,weatherlink.com 1.10,2013-06-02 20:48:00,
2013-06-02 17:03:00,76.9,66.0,29.89,SW,215,0.0,-999.0,69,-99.99,,,0.05,weatherlink.com 1.10,2013-06-02 21:03:00,
2013-06-02 17:18:00,76.7,67.0,29.89,SW,222,0.0,-999.0,72,-99.99,,,0.05,weatherlink.com 1.10,2013-06-02 21:18:00,
2013-06-02 17:33:00,77.2,67.0,29.89,SW,219,1.0,-999.0,70,-99.99,,,0.05,weatherlink.com 1.10,2013-06-02 21:33:00,
2013-06-02 17:48:00,78.1,67.0,29.88,WSW,250,2.0,-999.0,68,-99.99,,,0.05,weatherlink.com 1.10,2013-06-02 21:48:00,
2013-06-02 18:03:00,78.2,67.0,29.88,SW,227,4.0,-999.0,68,-99.99,,,0.05,weatherlink.com 1.10,2013-06-02 22:03:00,
2013-06-02 18:18:00,78.0,68.0,29.88,SSW,203,0.0,-999.0,71,-99.99,,,0.05,weatherlink.com 1.10,2013-06-02 22:18:00,
2013-06-02 18:33:00,78.4,67.0,29.88,WSW,249,4.0,-999.0,67,-99.99,,,0.05,weatherlink.com 1.10,2013-06-02 22:33:00,
2013-06-02 18:48:00,78.5,66.0,29.87,WSW,251,3.0,-999.0,65,-99.99,,,0.05,weatherlink.com 1.10,2013-06-02 22:48:00,
2013-06-02 19:03:00,78.0,66.0,29.87,WSW,251,0.0,-999.0,67,-99.99,,,0.05,weatherlink.com 1.10,2013-06-02 23:03:00,
2013-06-02 19:18:00,77.0,67.0,29.87,WSW,251,0.0,-999.0,70,-99.99,,,0.05,weatherlink.com 1.10,2013-06-02 23:18:00,
2013-06-02 19:33:00,76.4,67.0,29.87,WSW,251,0.0,-999.0,73,-99.99,,,0.05,weatherlink.com 1.10,2013-06-02 23:33:00,
2013-06-02 19:48:00,75.5,67.0,29.87,WSW,251,0.0,-999.0,75,-99.99,,,0.05,weatherlink.com 1.10,2013-06-02 23:48:00,
2013-06-02 20:03:00,74.9,67.0,29.88,WSW,251,0.0,-999.0,77,-99.99,,,0.05,weatherlink.com 1.10,2013-06-03 00:03:00,
2013-06-02 20:18:00,74.3,67.0,29.89,WSW,251,0.0,-999.0,79,-99.99,,,0.05,weatherlink.com 1.10,2013-06-03 00:18:00,
2013-06-02 20:33:00,73.9,67.0,29.89,WSW,251,0.0,-999.0,80,-99.99,,,0.05,weatherlink.com 1.10,2013-06-03 00:33:00,
2013-06-02 20:48:00,72.9,68.0,29.90,NW,321,0.0,-999.0,83,-99.99,,,0.11,weatherlink.com 1.10,2013-06-03 00:48:00,
2013-06-02 21:03:00,70.3,67.0,29.90,WNW,296,0.0,-999.0,88,-99.99,,,0.16,weatherlink.com 1.10,2013-06-03 01:03:00,
2013-06-02 21:18:00,69.3,67.0,29.90,WNW,296,0.0,-999.0,91,-99.99,,,0.17,weatherlink.com 1.10,2013-06-03 01:18:00,
2013-06-02 21:33:00,69.2,67.0,29.90,WNW,296,0.0,-999.0,92,-99.99,,,0.17,weatherlink.com 1.10,2013-06-03 01:33:00,
2013-06-02 21:48:00,69.2,67.0,29.91,WNW,296,0.0,-999.0,92,-99.99,,,0.17,weatherlink.com 1.10,2013-06-03 01:48:00,
2013-06-02 22:03:00,69.0,67.0,29.91,WNW,296,0.0,-999.0,93,-99.99,,,0.17,weatherlink.com 1.10,2013-06-03 02:03:00,
2013-06-02 22:18:00,68.9,67.0,29.91,WNW,296,0.0,-999.0,93,-99.99,,,0.17,weatherlink.com 1.10,2013-06-03 02:18:00,
2013-06-02 22:33:00,68.7,67.0,29.92,WNW,296,0.0,-999.0,93,-99.99,,,0.17,weatherlink.com 1.10,2013-06-03 02:33:00,
2013-06-02 22:48:00,68.4,66.0,29.92,WNW,296,0.0,-999.0,93,-99.99,,,0.17,weatherlink.com 1.10,2013-06-03 02:48:00,
2013-06-02 23:03:00,67.8,66.0,29.93,WNW,296,0.0,-999.0,93,-99.99,,,0.17,weatherlink.com 1.10,2013-06-03 03:03:00,
2013-06-02 23:18:00,66.8,65.0,29.93,WNW,296,0.0,-999.0,92,-99.99,,,0.17,weatherlink.com 1.10,2013-06-03 03:18:00,
2013-06-02 23:33:00,66.2,64.0,29.93,WNW,296,0.0,-999.0,93,-99.99,,,0.17,weatherlink.com 1.10,2013-06-03 03:33:00,
2013-06-02 23:48:00,66.4,65.0,29.93,WNW,296,0.0,-999.0,94,-99.99,,,0.17,weatherlink.com 1.10,2013-06-03 03:48:00,